Time;durP1;ratioP1;P1;durP2;ratioP2;P2;SDS_P1;SDS_P2;PMS_P1;PMS_P2;Temp;Humidity;BMP_temperature;BMP_pressure;BME280_temperature;BME280_humidity;BME280_pressure;Samples;Min_cycle;Max_cycle;Signal;HPM_P1;HPM_P2
2022/12/31 00:01:11;;;;;;;4.25;2.47;;;;;;;;;;5076438;28;20032;-85
2022/12/31 00:03:38;;;;;;;3.72;2.03;;;;;;;;;;5071764;28;20415;-84
2022/12/31 00:06:16;;;;;;;4.00;2.42;;;;;;;;;;5069975;28;20028;-84
2022/12/31 00:08:42;;;;;;;1.73;1.08;;;;;;;;;;5081618;28;20541;-86
2022/12/31 00:11:08;;;;;;;1.48;1.02;;;;;;;;;;5078139;28;20063;-86
2022/12/31 00:13:33;;;;;;;3.95;1.83;;;;;;;;;;5093223;28;20036;-86
2022/12/31 00:16:11;;;;;;;3.15;2.47;;;;;;;;;;5068300;28;20432;-85
2022/12/31 00:18:37;;;;;;;2.20;1.77;;;;;;;;;;5071550;28;20025;-86
2022/12/31 00:21:07;;;;;;;4.15;2.92;;;;;;;;;;5075543;28;20628;-85
2022/12/31 00:23:32;;;;;;;5.25;2.90;;;;;;;;;;5074894;28;20534;-86
2022/12/31 00:26:03;;;;;;;4.20;2.63;;;;;;;;;;5092447;28;20048;-85
2022/12/31 00:28:28;;;;;;;1.98;1.75;;;;;;;;;;5076969;28;20491;-85
2022/12/31 00:30:54;;;;;;;4.32;2.38;;;;;;;;;;5091081;28;20032;-85
2022/12/31 00:33:19;;;;;;;2.53;1.90;;;;;;;;;;5070254;28;20036;-86
2022/12/31 00:35:44;;;;;;;1.88;1.70;;;;;;;;;;5075896;28;20020;-88
2022/12/31 00:38:10;;;;;;;1.77;1.45;;;;;;;;;;5090141;28;20090;-87
2022/12/31 00:40:35;;;;;;;3.03;1.88;;;;;;;;;;5092475;28;20035;-85
2022/12/31 00:43:00;;;;;;;5.85;1.55;;;;;;;;;;5076597;28;20043;-86
2022/12/31 00:45:26;;;;;;;2.85;2.25;;;;;;;;;;5075627;28;20032;-86
2022/12/31 00:47:51;;;;;;;1.80;1.17;;;;;;;;;;5069927;28;20063;-87
2022/12/31 00:50:17;;;;;;;3.53;1.90;;;;;;;;;;5074061;28;20024;-86
2022/12/31 00:52:42;;;;;;;3.55;2.47;;;;;;;;;;5075028;28;20059;-85
2022/12/31 00:55:08;;;;;;;5.60;3.03;;;;;;;;;;5073636;28;20024;-85
2022/12/31 00:57:33;;;;;;;3.45;2.15;;;;;;;;;;5085950;28;20020;-84
2022/12/31 00:59:58;;;;;;;4.13;3.05;;;;;;;;;;5072963;28;20059;-87
2022/12/31 01:02:24;;;;;;;3.47;2.55;;;;;;;;;;5073914;28;20143;-87
2022/12/31 01:04:49;;;;;;;3.78;2.72;;;;;;;;;;5076440;28;20107;-86
2022/12/31 01:07:15;;;;;;;6.90;2.13;;;;;;;;;;5075312;28;20031;-86
2022/12/31 01:09:40;;;;;;;6.97;4.03;;;;;;;;;;5075139;28;20028;-87
2022/12/31 01:12:06;;;;;;;6.20;3.38;;;;;;;;;;5077628;28;20028;-85
2022/12/31 01:14:32;;;;;;;5.38;3.92;;;;;;;;;;5074701;28;20035;-87
2022/12/31 01:16:58;;;;;;;3.83;2.13;;;;;;;;;;5090795;28;20020;-86
2022/12/31 01:19:26;;;;;;;5.30;2.85;;;;;;;;;;5074925;28;20036;-86
2022/12/31 01:21:52;;;;;;;6.40;2.75;;;;;;;;;;5076114;28;20054;-86
2022/12/31 01:24:18;;;;;;;4.55;2.95;;;;;;;;;;5074468;28;20107;-86
2022/12/31 01:26:44;;;;;;;5.72;3.35;;;;;;;;;;5074180;28;20182;-85
2022/12/31 01:29:10;;;;;;;4.07;2.85;;;;;;;;;;5076288;28;20096;-86
2022/12/31 01:31:37;;;;;;;4.45;2.63;;;;;;;;;;5074794;28;20415;-84
2022/12/31 01:34:03;;;;;;;7.53;4.22;;;;;;;;;;5080502;28;20043;-83
2022/12/31 01:36:31;;;;;;;5.28;4.38;;;;;;;;;;5074022;28;20020;-86
2022/12/31 01:38:58;;;;;;;5.32;3.20;;;;;;;;;;5074790;28;20469;-85
2022/12/31 01:41:30;;;;;;;6.05;4.13;;;;;;;;;;5071808;28;20419;-87
2022/12/31 01:43:58;;;;;;;9.40;4.97;;;;;;;;;;5075427;28;20028;-87
2022/12/31 01:46:35;;;;;;;3.55;2.60;;;;;;;;;;5103719;28;20044;-86
2022/12/31 01:49:25;;;;;;;3.25;2.58;;;;;;;;;;5090157;28;20525;-87
2022/12/31 01:51:59;;;;;;;3.80;2.73;;;;;;;;;;5075885;28;20029;-87
2022/12/31 01:54:26;;;;;;;6.07;2.80;;;;;;;;;;5076394;28;20764;-86
2022/12/31 01:56:56;;;;;;;6.85;2.95;;;;;;;;;;5071090;28;20013;-87
2022/12/31 01:59:24;;;;;;;5.63;3.42;;;;;;;;;;5073701;28;20028;-85
2022/12/31 02:01:52;;;;;;;5.90;3.03;;;;;;;;;;5075038;28;20104;-87
2022/12/31 02:04:20;;;;;;;7.15;3.05;;;;;;;;;;5075325;28;20032;-88
2022/12/31 02:07:05;;;;;;;5.70;3.50;;;;;;;;;;5075555;28;20060;-88
2022/12/31 02:09:32;;;;;;;3.22;2.65;;;;;;;;;;5070127;28;20032;-87
2022/12/31 02:11:58;;;;;;;3.95;2.00;;;;;;;;;;5090263;28;20029;-88
2022/12/31 02:14:46;;;;;;;6.10;3.75;;;;;;;;;;5066404;28;20036;-87
2022/12/31 02:17:42;;;;;;;3.70;2.40;;;;;;;;;;5102749;28;20483;-89
2022/12/31 02:20:23;;;;;;;3.90;3.28;;;;;;;;;;5070494;28;20024;-89
2022/12/31 02:23:41;;;;;;;2.58;1.52;;;;;;;;;;5081377;28;20025;-85
2022/12/31 02:26:39;;;;;;;2.65;1.88;;;;;;;;;;5043351;28;20135;-86
2022/12/31 02:29:20;;;;;;;3.20;1.95;;;;;;;;;;5070406;28;20048;-85
2022/12/31 02:31:51;;;;;;;3.67;1.75;;;;;;;;;;5072043;28;20025;-86
2022/12/31 02:34:30;;;;;;;2.97;2.65;;;;;;;;;;5073896;28;20531;-86
2022/12/31 02:36:59;;;;;;;7.00;2.72;;;;;;;;;;5072868;28;20032;-86
2022/12/31 02:39:25;;;;;;;3.95;1.95;;;;;;;;;;5074064;28;20063;-86
2022/12/31 02:41:52;;;;;;;5.28;2.80;;;;;;;;;;5071823;28;20056;-85
2022/12/31 02:44:25;;;;;;;3.05;2.22;;;;;;;;;;5074457;28;20024;-86
2022/12/31 02:47:09;;;;;;;1.95;1.48;;;;;;;;;;5072915;28;20463;-86
2022/12/31 02:50:08;;;;;;;3.72;2.70;;;;;;;;;;5088978;28;20108;-86
2022/12/31 02:53:04;;;;;;;2.53;1.65;;;;;;;;;;5072384;28;20020;-85
2022/12/31 02:55:51;;;;;;;1.48;1.33;;;;;;;;;;5085860;28;20388;-85
2022/12/31 03:04:33;;;;;;;1.63;1.45;;;;;;;;;;5074279;28;20499;-85
2022/12/31 03:07:03;;;;;;;1.98;1.45;;;;;;;;;;5074041;28;20024;-84
2022/12/31 03:09:28;;;;;;;2.58;1.50;;;;;;;;;;5074236;28;20032;-86
2022/12/31 03:14:37;;;;;;;3.50;2.13;;;;;;;;;;5069133;28;20074;-86
2022/12/31 03:17:12;;;;;;;2.42;1.67;;;;;;;;;;5073422;28;20025;-88
2022/12/31 03:22:28;;;;;;;2.58;1.85;;;;;;;;;;5073552;28;20541;-87
2022/12/31 03:27:47;;;;;;;2.03;1.80;;;;;;;;;;5074060;28;20435;-85
2022/12/31 03:30:15;;;;;;;2.97;2.20;;;;;;;;;;5073685;28;20028;-86
2022/12/31 03:32:41;;;;;;;3.53;1.85;;;;;;;;;;5072745;28;20430;-88
2022/12/31 03:35:08;;;;;;;2.92;2.22;;;;;;;;;;5073571;28;20056;-88
2022/12/31 03:37:33;;;;;;;1.85;1.23;;;;;;;;;;5073119;28;20484;-85
2022/12/31 03:39:59;;;;;;;5.18;2.05;;;;;;;;;;5072526;28;20032;-85
2022/12/31 03:42:24;;;;;;;2.47;1.73;;;;;;;;;;5073607;28;20035;-86
2022/12/31 03:44:50;;;;;;;1.50;1.35;;;;;;;;;;5073604;28;20056;-87
2022/12/31 03:47:15;;;;;;;3.47;2.20;;;;;;;;;;5072224;28;20077;-86
2022/12/31 03:49:40;;;;;;;1.73;1.45;;;;;;;;;;5072307;28;20029;-89
2022/12/31 03:52:07;;;;;;;2.03;1.27;;;;;;;;;;5072351;28;20051;-88
2022/12/31 03:54:33;;;;;;;2.42;1.65;;;;;;;;;;5072378;28;20024;-88
2022/12/31 03:56:58;;;;;;;2.92;1.13;;;;;;;;;;5073557;28;20028;-87
2022/12/31 03:59:24;;;;;;;1.77;1.30;;;;;;;;;;5073779;28;20052;-86
2022/12/31 04:01:49;;;;;;;2.90;2.30;;;;;;;;;;5088402;28;20074;-87
2022/12/31 04:04:14;;;;;;;4.28;2.92;;;;;;;;;;5072304;28;20029;-88
2022/12/31 04:06:40;;;;;;;3.75;1.92;;;;;;;;;;5073942;28;20027;-86
2022/12/31 04:09:05;;;;;;;4.00;1.73;;;;;;;;;;5073748;28;20020;-89
2022/12/31 04:11:31;;;;;;;3.92;2.05;;;;;;;;;;5073419;28;20456;-88
2022/12/31 04:13:58;;;;;;;1.90;1.23;;;;;;;;;;5070207;28;20476;-87
2022/12/31 04:16:24;;;;;;;2.08;1.60;;;;;;;;;;5073022;28;20032;-88
2022/12/31 04:18:49;;;;;;;1.33;1.10;;;;;;;;;;5072351;28;20025;-89
2022/12/31 04:21:14;;;;;;;4.05;2.78;;;;;;;;;;5089095;28;20047;-87
2022/12/31 04:23:40;;;;;;;2.10;1.80;;;;;;;;;;5073450;28;20033;-87
2022/12/31 04:26:05;;;;;;;1.20;1.10;;;;;;;;;;5072677;28;20450;-87
2022/12/31 04:28:31;;;;;;;0.77;0.77;;;;;;;;;;5088760;28;20029;-87
2022/12/31 04:30:56;;;;;;;3.42;1.35;;;;;;;;;;5073982;28;20047;-88
2022/12/31 04:33:21;;;;;;;2.38;1.75;;;;;;;;;;5089295;28;20025;-86
2022/12/31 04:35:47;;;;;;;2.45;1.60;;;;;;;;;;5074192;28;20543;-87
2022/12/31 04:38:12;;;;;;;1.80;1.50;;;;;;;;;;5078504;28;20035;-86
2022/12/31 04:41:15;;;;;;;2.78;1.52;;;;;;;;;;5077174;28;20070;-86
2022/12/31 04:43:23;;;;;;;2.85;1.52;;;;;;;;;;5074540;28;20545;-88
2022/12/31 04:45:48;;;;;;;1.17;0.98;;;;;;;;;;5074203;28;20051;-87
2022/12/31 04:48:14;;;;;;;3.30;1.35;;;;;;;;;;5076567;28;20036;-86
2022/12/31 04:50:39;;;;;;;3.13;0.75;;;;;;;;;;5077253;28;20104;-87
2022/12/31 04:53:04;;;;;;;2.58;1.35;;;;;;;;;;5092347;28;20028;-86
2022/12/31 04:55:30;;;;;;;2.10;1.48;;;;;;;;;;5075181;28;20522;-86
2022/12/31 04:57:55;;;;;;;2.92;1.77;;;;;;;;;;5075637;28;20029;-87
2022/12/31 05:00:21;;;;;;;1.45;1.10;;;;;;;;;;5092394;28;20469;-85
2022/12/31 05:02:46;;;;;;;1.33;1.27;;;;;;;;;;5076131;28;20054;-86
2022/12/31 05:05:11;;;;;;;2.30;1.65;;;;;;;;;;5092059;28;20551;-87
2022/12/31 05:07:37;;;;;;;1.80;1.40;;;;;;;;;;5076091;28;20025;-88
2022/12/31 05:10:03;;;;;;;1.88;1.58;;;;;;;;;;5072171;28;20039;-89
2022/12/31 05:12:28;;;;;;;1.63;1.13;;;;;;;;;;5074237;28;20033;-88
2022/12/31 05:14:53;;;;;;;4.00;2.08;;;;;;;;;;5073634;28;20028;-89
2022/12/31 05:17:19;;;;;;;2.28;1.35;;;;;;;;;;5072352;28;20028;-86
2022/12/31 05:19:55;;;;;;;1.52;1.05;;;;;;;;;;5075047;28;20020;-85
2022/12/31 05:22:29;;;;;;;4.90;1.70;;;;;;;;;;5072662;28;20112;-86
2022/12/31 05:24:59;;;;;;;1.65;1.38;;;;;;;;;;5072320;28;20553;-87
2022/12/31 05:27:26;;;;;;;5.45;3.53;;;;;;;;;;5106227;28;20107;-86
2022/12/31 05:29:52;;;;;;;4.05;2.78;;;;;;;;;;5072246;28;20039;-86
2022/12/31 05:32:17;;;;;;;2.97;2.10;;;;;;;;;;5072564;28;20033;-86
2022/12/31 05:34:43;;;;;;;1.83;1.30;;;;;;;;;;5070421;28;20488;-87
2022/12/31 05:37:08;;;;;;;2.05;1.42;;;;;;;;;;5073929;28;20461;-86
2022/12/31 05:39:34;;;;;;;1.13;1.08;;;;;;;;;;5073596;28;20016;-85
2022/12/31 05:41:59;;;;;;;2.67;1.65;;;;;;;;;;5073812;28;20384;-85
2022/12/31 05:44:24;;;;;;;1.67;1.15;;;;;;;;;;5074759;28;20736;-88
2022/12/31 05:46:50;;;;;;;1.15;1.05;;;;;;;;;;5073787;28;20028;-89
2022/12/31 05:49:15;;;;;;;1.13;1.00;;;;;;;;;;5070557;28;20037;-87
2022/12/31 05:51:41;;;;;;;2.25;1.38;;;;;;;;;;5071974;28;20031;-86
2022/12/31 05:54:06;;;;;;;1.65;1.50;;;;;;;;;;5086107;28;20028;-88
2022/12/31 05:56:32;;;;;;;2.63;1.83;;;;;;;;;;5070913;28;20029;-86
2022/12/31 05:58:57;;;;;;;2.15;1.95;;;;;;;;;;5071896;28;20026;-86
2022/12/31 06:01:23;;;;;;;2.35;1.95;;;;;;;;;;5073629;28;20150;-87
2022/12/31 06:03:48;;;;;;;2.72;1.55;;;;;;;;;;5071625;28;20032;-86
2022/12/31 06:06:13;;;;;;;1.73;1.17;;;;;;;;;;5088852;28;20039;-84
2022/12/31 06:08:40;;;;;;;2.30;1.10;;;;;;;;;;5072120;28;20039;-86
2022/12/31 06:11:05;;;;;;;1.48;1.38;;;;;;;;;;5071936;28;20040;-88
2022/12/31 06:13:31;;;;;;;1.63;1.52;;;;;;;;;;5066204;28;20075;-87
2022/12/31 06:15:56;;;;;;;2.63;1.85;;;;;;;;;;5072450;28;20035;-85
2022/12/31 06:18:22;;;;;;;1.13;1.00;;;;;;;;;;5072127;28;20017;-87
2022/12/31 06:20:47;;;;;;;1.95;1.42;;;;;;;;;;5072165;28;20380;-87
2022/12/31 06:23:13;;;;;;;1.90;1.50;;;;;;;;;;5072246;28;20056;-86
2022/12/31 06:25:38;;;;;;;2.20;1.88;;;;;;;;;;5073245;28;20045;-87
2022/12/31 06:28:04;;;;;;;6.20;2.70;;;;;;;;;;5087111;28;20054;-86
2022/12/31 06:30:30;;;;;;;3.10;2.13;;;;;;;;;;5072138;28;20472;-87
2022/12/31 06:32:56;;;;;;;3.22;2.35;;;;;;;;;;5070031;28;20031;-87
2022/12/31 06:35:21;;;;;;;6.45;2.33;;;;;;;;;;5070035;28;20024;-86
2022/12/31 06:37:47;;;;;;;3.72;2.53;;;;;;;;;;5071846;28;20375;-87
2022/12/31 06:40:13;;;;;;;2.58;1.92;;;;;;;;;;5073590;28;20059;-86
2022/12/31 06:42:41;;;;;;;2.58;1.60;;;;;;;;;;5072218;28;20472;-88
2022/12/31 06:45:07;;;;;;;2.95;2.00;;;;;;;;;;5073250;28;20029;-87
2022/12/31 06:47:33;;;;;;;2.30;2.00;;;;;;;;;;5072873;28;20034;-88
2022/12/31 06:50:05;;;;;;;4.47;2.03;;;;;;;;;;5065847;28;20028;-89
2022/12/31 06:52:31;;;;;;;2.80;2.05;;;;;;;;;;5072872;28;20021;-87
2022/12/31 06:54:57;;;;;;;3.15;1.83;;;;;;;;;;5074014;28;20096;-87
2022/12/31 06:57:23;;;;;;;4.95;3.28;;;;;;;;;;5072537;28;20099;-87
2022/12/31 06:59:49;;;;;;;4.95;2.88;;;;;;;;;;5069238;28;20059;-87
2022/12/31 07:02:29;;;;;;;6.03;2.55;;;;;;;;;;5072807;28;20482;-85
2022/12/31 07:05:10;;;;;;;3.97;3.33;;;;;;;;;;5082580;28;20021;-87
2022/12/31 07:07:52;;;;;;;7.20;2.35;;;;;;;;;;5069773;28;20020;-86
2022/12/31 07:10:17;;;;;;;8.60;4.82;;;;;;;;;;5071291;28;20534;-86
2022/12/31 07:12:49;;;;;;;7.45;4.05;;;;;;;;;;5070525;28;20028;-85
2022/12/31 07:15:34;;;;;;;5.38;3.55;;;;;;;;;;5088420;28;20028;-86
2022/12/31 07:18:10;;;;;;;3.95;3.15;;;;;;;;;;5070265;28;20028;-87
2022/12/31 07:20:37;;;;;;;6.32;2.80;;;;;;;;;;5074289;28;20361;-84
2022/12/31 07:23:02;;;;;;;3.88;2.58;;;;;;;;;;5070369;28;20034;-86
2022/12/31 07:25:28;;;;;;;5.25;3.53;;;;;;;;;;5072214;28;20556;-86
2022/12/31 07:28:21;;;;;;;7.78;3.95;;;;;;;;;;5072159;28;20047;-86
2022/12/31 07:31:06;;;;;;;5.18;3.53;;;;;;;;;;5072005;28;20079;-87
2022/12/31 07:33:44;;;;;;;5.53;4.05;;;;;;;;;;5085113;28;20353;-89
2022/12/31 07:36:09;;;;;;;5.32;3.38;;;;;;;;;;5072641;28;20025;-85
2022/12/31 07:38:53;;;;;;;4.45;3.25;;;;;;;;;;5069928;28;20031;-87
2022/12/31 07:41:28;;;;;;;3.47;2.42;;;;;;;;;;5069366;28;20028;-88
2022/12/31 07:44:07;;;;;;;6.43;3.28;;;;;;;;;;5069893;28;20027;-87
2022/12/31 07:46:46;;;;;;;7.87;3.30;;;;;;;;;;5069067;28;20021;-87
2022/12/31 07:49:12;;;;;;;6.43;4.47;;;;;;;;;;5085948;28;20039;-87
2022/12/31 07:51:38;;;;;;;8.52;4.13;;;;;;;;;;5072430;28;20032;-88
2022/12/31 07:54:04;;;;;;;6.50;3.97;;;;;;;;;;5072014;28;20035;-88
2022/12/31 07:56:30;;;;;;;5.13;3.20;;;;;;;;;;5072397;28;20024;-87
2022/12/31 07:59:21;;;;;;;5.75;3.30;;;;;;;;;;5072224;28;20442;-87
2022/12/31 08:02:05;;;;;;;7.07;3.22;;;;;;;;;;5073196;28;20032;-87
2022/12/31 08:05:08;;;;;;;4.13;3.40;;;;;;;;;;5071808;28;20411;-86
2022/12/31 08:07:57;;;;;;;5.95;3.75;;;;;;;;;;5066289;28;20080;-89
2022/12/31 08:10:34;;;;;;;5.95;4.20;;;;;;;;;;5071042;28;20390;-89
2022/12/31 08:13:01;;;;;;;7.97;4.28;;;;;;;;;;5075749;28;20036;-90
2022/12/31 08:15:27;;;;;;;8.73;4.60;;;;;;;;;;5090908;28;20411;-88
2022/12/31 08:17:53;;;;;;;16.10;8.60;;;;;;;;;;5091399;28;20020;-89
2022/12/31 08:20:19;;;;;;;9.73;6.38;;;;;;;;;;5073360;28;20532;-88
2022/12/31 08:23:04;;;;;;;10.60;6.32;;;;;;;;;;5076184;28;20020;-88
2022/12/31 08:25:51;;;;;;;9.18;6.78;;;;;;;;;;5051244;28;20523;-88
2022/12/31 08:28:54;;;;;;;8.52;5.20;;;;;;;;;;5075564;28;20473;-86
2022/12/31 08:31:43;;;;;;;19.63;5.28;;;;;;;;;;5090702;28;20384;-88
2022/12/31 08:34:28;;;;;;;8.77;4.65;;;;;;;;;;5089276;28;20028;-89
2022/12/31 08:37:02;;;;;;;8.52;4.55;;;;;;;;;;5076611;28;20020;-87
2022/12/31 08:39:43;;;;;;;8.18;4.45;;;;;;;;;;5070733;28;20527;-87
2022/12/31 08:42:21;;;;;;;5.90;4.28;;;;;;;;;;5089604;28;20115;-87
2022/12/31 08:44:56;;;;;;;9.48;4.30;;;;;;;;;;5075062;28;20067;-88
2022/12/31 08:47:50;;;;;;;6.85;4.60;;;;;;;;;;5074843;28;20039;-88
2022/12/31 08:50:20;;;;;;;7.45;3.85;;;;;;;;;;5077421;28;20373;-88
2022/12/31 08:52:47;;;;;;;10.55;4.68;;;;;;;;;;5106452;28;20500;-89
2022/12/31 08:55:17;;;;;;;10.32;4.55;;;;;;;;;;5075915;28;20431;-89
2022/12/31 08:58:07;;;;;;;6.63;4.90;;;;;;;;;;5078582;28;20020;-87
2022/12/31 09:00:35;;;;;;;7.68;5.00;;;;;;;;;;5075459;28;20042;-88
2022/12/31 09:03:42;;;;;;;9.98;5.15;;;;;;;;;;5076739;28;20107;-88
2022/12/31 09:06:20;;;;;;;6.40;4.05;;;;;;;;;;5072814;28;20068;-87
2022/12/31 09:09:19;;;;;;;8.75;5.70;;;;;;;;;;5074973;28;20033;-87
2022/12/31 09:12:07;;;;;;;7.47;5.28;;;;;;;;;;5072276;28;20017;-88
2022/12/31 09:14:59;;;;;;;6.50;4.85;;;;;;;;;;5072065;28;20031;-88
2022/12/31 09:17:40;;;;;;;8.15;5.15;;;;;;;;;;5104654;28;20028;-88
2022/12/31 09:20:14;;;;;;;6.00;3.75;;;;;;;;;;5076359;28;20024;-89
2022/12/31 09:22:39;;;;;;;7.18;4.63;;;;;;;;;;5072561;28;20039;-88
2022/12/31 09:25:05;;;;;;;8.30;4.97;;;;;;;;;;5072496;28;20048;-86
2022/12/31 09:28:00;;;;;;;7.93;5.20;;;;;;;;;;5092116;28;20037;-87
2022/12/31 09:30:30;;;;;;;9.25;5.53;;;;;;;;;;5057231;28;20032;-88
2022/12/31 09:33:04;;;;;;;6.22;5.15;;;;;;;;;;5076608;28;20036;-87
2022/12/31 09:36:06;;;;;;;9.02;4.75;;;;;;;;;;5091510;28;20029;-88
2022/12/31 09:38:44;;;;;;;5.15;3.67;;;;;;;;;;5052572;28;20543;-88
2022/12/31 09:41:15;;;;;;;6.93;4.45;;;;;;;;;;5074190;28;20035;-88
2022/12/31 09:43:56;;;;;;;7.05;4.10;;;;;;;;;;5075451;28;20024;-87
2022/12/31 09:47:10;;;;;;;4.70;3.97;;;;;;;;;;5074758;28;20028;-87
2022/12/31 09:50:14;;;;;;;9.45;5.30;;;;;;;;;;5070241;28;20032;-85
2022/12/31 09:53:15;;;;;;;7.25;4.60;;;;;;;;;;5089687;28;20020;-89
2022/12/31 09:56:09;;;;;;;8.85;4.28;;;;;;;;;;5073189;28;20388;-88
2022/12/31 09:58:56;;;;;;;5.65;4.38;;;;;;;;;;5051960;28;20060;-90
2022/12/31 10:01:52;;;;;;;9.05;5.25;;;;;;;;;;5074625;28;20032;-89
2022/12/31 10:04:55;;;;;;;8.73;4.28;;;;;;;;;;5084344;28;20033;-89
2022/12/31 10:07:40;;;;;;;6.72;4.13;;;;;;;;;;5089387;28;20037;-89
2022/12/31 10:10:24;;;;;;;6.25;4.57;;;;;;;;;;5074350;28;20074;-89
2022/12/31 10:12:56;;;;;;;7.78;4.03;;;;;;;;;;5072087;28;20028;-89
2022/12/31 10:16:00;;;;;;;7.72;3.67;;;;;;;;;;5073951;28;20036;-88
2022/12/31 10:18:41;;;;;;;5.28;4.03;;;;;;;;;;5102919;28;20055;-88
2022/12/31 10:21:36;;;;;;;3.60;2.97;;;;;;;;;;5089165;28;20025;-88
2022/12/31 10:24:32;;;;;;;5.20;3.53;;;;;;;;;;5057847;28;20040;-88
2022/12/31 10:27:17;;;;;;;8.85;4.40;;;;;;;;;;5072884;28;20119;-91
2022/12/31 10:30:12;;;;;;;6.65;3.45;;;;;;;;;;5073124;28;20393;-87
2022/12/31 10:32:37;;;;;;;7.57;4.07;;;;;;;;;;5068619;28;20052;-86
2022/12/31 10:35:27;;;;;;;5.97;3.75;;;;;;;;;;5072840;28;20063;-87
2022/12/31 10:38:10;;;;;;;5.78;3.72;;;;;;;;;;5069471;28;20029;-85
2022/12/31 10:41:03;;;;;;;8.60;3.38;;;;;;;;;;5103543;28;20028;-86
2022/12/31 10:44:00;;;;;;;6.07;4.40;;;;;;;;;;5071060;28;20025;-91
2022/12/31 10:46:34;;;;;;;8.85;5.18;;;;;;;;;;5067184;28;20025;-89
2022/12/31 10:49:27;;;;;;;6.80;4.72;;;;;;;;;;5071771;28;20422;-90
2022/12/31 10:52:14;;;;;;;6.13;4.25;;;;;;;;;;5072328;28;20029;-90
2022/12/31 10:54:48;;;;;;;5.22;3.17;;;;;;;;;;5070796;28;20078;-88
2022/12/31 10:57:46;;;;;;;5.88;4.00;;;;;;;;;;5070127;28;20381;-90
2022/12/31 11:00:47;;;;;;;7.10;4.53;;;;;;;;;;5077153;28;20127;-88
2022/12/31 11:03:47;;;;;;;9.57;6.53;;;;;;;;;;5071192;28;20358;-87
2022/12/31 11:06:13;;;;;;;20.08;6.45;;;;;;;;;;5056303;28;20062;-89
2022/12/31 11:08:44;;;;;;;6.53;4.45;;;;;;;;;;5073070;28;20062;-89
2022/12/31 11:11:40;;;;;;;8.48;4.97;;;;;;;;;;5072939;28;20089;-85
2022/12/31 11:14:11;;;;;;;9.73;4.63;;;;;;;;;;5070847;28;20471;-88
2022/12/31 11:16:43;;;;;;;9.32;5.25;;;;;;;;;;5074209;28;20021;-87
2022/12/31 11:19:27;;;;;;;7.75;5.28;;;;;;;;;;5074249;28;20017;-88
2022/12/31 11:22:07;;;;;;;6.47;4.82;;;;;;;;;;5071682;28;20036;-88
2022/12/31 11:24:59;;;;;;;8.50;6.03;;;;;;;;;;5070497;28;20543;-88
2022/12/31 11:28:11;;;;;;;7.60;5.50;;;;;;;;;;5088587;28;20145;-88
2022/12/31 11:30:54;;;;;;;7.65;4.53;;;;;;;;;;5051472;28;20037;-88
2022/12/31 11:33:33;;;;;;;10.35;6.65;;;;;;;;;;5070349;28;20029;-89
2022/12/31 11:36:17;;;;;;;8.18;4.57;;;;;;;;;;5088719;28;20119;-87
2022/12/31 11:38:50;;;;;;;10.65;5.90;;;;;;;;;;5083458;28;20028;-88
2022/12/31 11:41:32;;;;;;;5.32;3.97;;;;;;;;;;5072581;28;20032;-88
2022/12/31 11:44:09;;;;;;;6.13;3.85;;;;;;;;;;5073663;28;20024;-87
2022/12/31 11:46:57;;;;;;;10.23;5.03;;;;;;;;;;5076331;28;20817;-88
2022/12/31 11:49:25;;;;;;;5.60;3.67;;;;;;;;;;5073666;28;20395;-88
2022/12/31 11:52:26;;;;;;;4.97;4.22;;;;;;;;;;5077644;28;20422;-88
2022/12/31 11:55:29;;;;;;;39.90;19.92;;;;;;;;;;5069413;28;20071;-88
2022/12/31 11:58:00;;;;;;;19.67;13.15;;;;;;;;;;5076365;28;20061;-88
2022/12/31 12:00:27;;;;;;;14.95;9.55;;;;;;;;;;5074452;28;20024;-89
2022/12/31 12:02:58;;;;;;;8.85;6.03;;;;;;;;;;5077048;28;20025;-89
2022/12/31 12:05:24;;;;;;;7.28;4.78;;;;;;;;;;5074782;28;20043;-88
2022/12/31 12:07:50;;;;;;;9.93;6.13;;;;;;;;;;5076369;28;20094;-88
2022/12/31 12:10:29;;;;;;;13.40;6.53;;;;;;;;;;5076513;28;20032;-88
2022/12/31 12:13:09;;;;;;;10.15;5.63;;;;;;;;;;5076362;28;20043;-89
2022/12/31 12:15:34;;;;;;;10.38;4.65;;;;;;;;;;5074866;28;20020;-88
2022/12/31 12:18:08;;;;;;;5.80;4.55;;;;;;;;;;5076253;28;20119;-89
2022/12/31 12:20:37;;;;;;;8.02;5.00;;;;;;;;;;5092264;28;20035;-89
2022/12/31 12:23:15;;;;;;;32.15;14.63;;;;;;;;;;5076984;28;20484;-87
2022/12/31 12:25:42;;;;;;;24.80;17.25;;;;;;;;;;5074449;28;20048;-87
2022/12/31 12:28:18;;;;;;;13.65;8.27;;;;;;;;;;5070494;28;20056;-89
2022/12/31 12:31:16;;;;;;;4.72;2.95;;;;;;;;;;5086612;28;20082;-89
2022/12/31 12:33:43;;;;;;;3.40;2.30;;;;;;;;;;5090965;28;20500;-89
2022/12/31 12:36:15;;;;;;;6.72;3.13;;;;;;;;;;5074713;28;20028;-89
2022/12/31 12:38:41;;;;;;;5.65;3.95;;;;;;;;;;5075913;28;20516;-88
2022/12/31 12:41:25;;;;;;;5.93;3.72;;;;;;;;;;5073663;28;20396;-89
2022/12/31 12:44:02;;;;;;;2.75;2.35;;;;;;;;;;5070514;28;20090;-89
2022/12/31 12:46:45;;;;;;;3.67;2.97;;;;;;;;;;5070521;28;20098;-89
2022/12/31 12:49:27;;;;;;;7.60;3.50;;;;;;;;;;5089499;28;20028;-88
2022/12/31 12:52:20;;;;;;;4.65;3.20;;;;;;;;;;5090988;28;20028;-87
2022/12/31 12:55:13;;;;;;;4.85;2.50;;;;;;;;;;5072593;28;20372;-90
2022/12/31 12:57:57;;;;;;;2.05;1.88;;;;;;;;;;5072984;28;20021;-89
2022/12/31 13:00:31;;;;;;;5.03;2.47;;;;;;;;;;5074869;28;20388;-89
2022/12/31 13:03:13;;;;;;;3.80;1.77;;;;;;;;;;5073498;28;20024;-89
2022/12/31 13:05:44;;;;;;;4.07;2.28;;;;;;;;;;5072030;28;20020;-88
2022/12/31 13:08:31;;;;;;;2.72;1.75;;;;;;;;;;5074971;28;20472;-89
2022/12/31 13:11:25;;;;;;;2.63;1.42;;;;;;;;;;5073685;28;20116;-89
2022/12/31 13:13:56;;;;;;;1.98;1.75;;;;;;;;;;5087225;28;20051;-88
2022/12/31 13:16:25;;;;;;;3.58;1.75;;;;;;;;;;5072330;28;20036;-88
2022/12/31 13:19:33;;;;;;;1.77;1.63;;;;;;;;;;5072722;28;20872;-88
2022/12/31 13:22:08;;;;;;;4.03;1.67;;;;;;;;;;5071596;28;20028;-87
2022/12/31 13:24:37;;;;;;;2.33;1.55;;;;;;;;;;5074655;28;20055;-87
2022/12/31 13:27:15;;;;;;;2.47;2.25;;;;;;;;;;5070483;28;20028;-88
2022/12/31 13:29:43;;;;;;;2.72;1.80;;;;;;;;;;5072709;28;20024;-89
2022/12/31 13:32:16;;;;;;;3.08;2.35;;;;;;;;;;5074886;28;20141;-88
2022/12/31 13:34:44;;;;;;;3.55;2.20;;;;;;;;;;5076278;28;20074;-89
2022/12/31 13:37:40;;;;;;;3.22;1.98;;;;;;;;;;5075871;28;20024;-89
2022/12/31 13:40:28;;;;;;;3.45;2.08;;;;;;;;;;5075089;28;20094;-88
2022/12/31 13:42:59;;;;;;;2.90;1.85;;;;;;;;;;5073330;28;20058;-87
2022/12/31 13:45:49;;;;;;;2.22;1.38;;;;;;;;;;5075529;28;20032;-90
2022/12/31 13:48:22;;;;;;;3.03;1.85;;;;;;;;;;5090687;28;20392;-89
2022/12/31 13:51:00;;;;;;;1.83;1.48;;;;;;;;;;5077316;28;20070;-87
2022/12/31 13:53:37;;;;;;;1.40;1.17;;;;;;;;;;5073045;28;20024;-88
2022/12/31 13:56:11;;;;;;;3.63;2.00;;;;;;;;;;5070795;28;20036;-90
2022/12/31 13:58:52;;;;;;;3.05;1.95;;;;;;;;;;5075424;28;20032;-90
2022/12/31 14:01:45;;;;;;;4.15;2.38;;;;;;;;;;5090091;28;20036;-90
2022/12/31 14:04:20;;;;;;;4.50;2.75;;;;;;;;;;5074513;28;20036;-90
2022/12/31 14:07:01;;;;;;;2.45;1.75;;;;;;;;;;5084931;28;20032;-89
2022/12/31 14:09:32;;;;;;;3.15;1.50;;;;;;;;;;5076139;28;20148;-88
2022/12/31 14:12:35;;;;;;;4.53;2.33;;;;;;;;;;5074100;28;20530;-89
2022/12/31 14:15:38;;;;;;;3.92;1.60;;;;;;;;;;5074069;28;20021;-88
2022/12/31 14:18:27;;;;;;;3.70;2.20;;;;;;;;;;5087130;28;20149;-88
2022/12/31 14:21:02;;;;;;;1.95;1.17;;;;;;;;;;5091673;28;20033;-90
2022/12/31 14:23:55;;;;;;;2.75;2.35;;;;;;;;;;5077441;28;20042;-90
2022/12/31 14:26:56;;;;;;;2.47;1.83;;;;;;;;;;5071957;28;20052;-89
2022/12/31 14:29:39;;;;;;;0.98;0.93;;;;;;;;;;5066045;28;20043;-89
2022/12/31 14:32:14;;;;;;;1.73;1.52;;;;;;;;;;5089876;28;20025;-88
2022/12/31 14:35:04;;;;;;;1.60;1.48;;;;;;;;;;5073756;28;20361;-87
2022/12/31 14:37:35;;;;;;;2.20;1.77;;;;;;;;;;5087858;28;20382;-88
2022/12/31 14:40:31;;;;;;;2.80;1.50;;;;;;;;;;5073138;28;20048;-88
2022/12/31 14:43:25;;;;;;;2.17;1.25;;;;;;;;;;5073598;28;20028;-89
2022/12/31 14:46:19;;;;;;;2.13;1.38;;;;;;;;;;5088954;28;20418;-87
2022/12/31 14:48:52;;;;;;;0.82;0.70;;;;;;;;;;5072416;28;20499;-86
2022/12/31 14:51:17;;;;;;;1.42;0.98;;;;;;;;;;5071010;28;20079;-87
2022/12/31 14:53:53;;;;;;;1.25;0.77;;;;;;;;;;5075584;28;20028;-89
2022/12/31 14:56:45;;;;;;;1.17;0.90;;;;;;;;;;5074571;28;20025;-90
2022/12/31 14:59:27;;;;;;;1.23;1.00;;;;;;;;;;5087984;28;20036;-89
2022/12/31 15:01:53;;;;;;;0.90;0.77;;;;;;;;;;5072343;28;20024;-90
2022/12/31 15:04:32;;;;;;;0.88;0.70;;;;;;;;;;5071736;28;20081;-90
2022/12/31 15:07:09;;;;;;;1.40;0.80;;;;;;;;;;5088004;28;20059;-90
2022/12/31 15:10:08;;;;;;;1.88;1.33;;;;;;;;;;5068119;28;20380;-91
2022/12/31 15:13:21;;;;;;;1.98;1.50;;;;;;;;;;5075110;28;20029;-90
2022/12/31 15:15:52;;;;;;;9.30;3.47;;;;;;;;;;5071387;28;20026;-90
2022/12/31 15:18:23;;;;;;;2.63;1.80;;;;;;;;;;5071812;28;20021;-88
2022/12/31 15:21:07;;;;;;;1.73;1.02;;;;;;;;;;5067482;28;20048;-85
2022/12/31 15:23:34;;;;;;;3.22;1.55;;;;;;;;;;5070285;28;20082;-86
2022/12/31 15:26:01;;;;;;;1.23;1.13;;;;;;;;;;5071899;28;20448;-85
2022/12/31 15:28:37;;;;;;;2.63;1.38;;;;;;;;;;5083691;28;20736;-85
2022/12/31 15:31:15;;;;;;;1.15;0.75;;;;;;;;;;5069093;28;20055;-86
2022/12/31 15:33:53;;;;;;;3.72;1.23;;;;;;;;;;5069688;28;20028;-85
2022/12/31 15:36:21;;;;;;;2.25;1.63;;;;;;;;;;5085671;28;20112;-84
2022/12/31 15:38:47;;;;;;;1.00;0.95;;;;;;;;;;5070750;28;20052;-86
2022/12/31 15:41:27;;;;;;;2.50;0.85;;;;;;;;;;5099998;28;20032;-85
2022/12/31 15:44:00;;;;;;;1.50;1.13;;;;;;;;;;5071100;28;20511;-85
2022/12/31 15:46:31;;;;;;;1.63;0.93;;;;;;;;;;5070900;28;20036;-89